createdAt,value
2022-09-18T00:00:50.161Z,8.5
2022-09-18T00:02:50.412Z,8.5
2022-09-18T00:04:50.820Z,8.5
2022-09-18T00:06:50.117Z,8.5
2022-09-18T00:08:50.856Z,8.5
2022-09-18T00:10:50.781Z,8.5
2022-09-18T00:12:50.570Z,8.5
2022-09-18T00:14:50.698Z,8.4
2022-09-18T00:16:50.908Z,8.4
2022-09-18T00:18:50.942Z,8.4
2022-09-18T00:20:50.008Z,8.4
2022-09-18T00:22:50.852Z,8.4
2022-09-18T00:24:50.880Z,8.4
2022-09-18T00:26:50.192Z,8.4
2022-09-18T00:28:50.366Z,8.4
2022-09-18T00:30:50.252Z,8.4
2022-09-18T00:32:50.221Z,8.4
2022-09-18T00:34:50.846Z,8.4
2022-09-18T00:36:50.012Z,8.4
2022-09-18T00:38:50.794Z,8.3
2022-09-18T00:40:49.983Z,8.3
2022-09-18T00:42:50.400Z,8.3
2022-09-18T00:44:50.316Z,8.3
2022-09-18T00:46:50.805Z,8.3
2022-09-18T00:48:49.955Z,8.3
2022-09-18T00:50:50.751Z,8.3
2022-09-18T00:52:50.483Z,8.3
2022-09-18T00:54:50.523Z,8.3
2022-09-18T00:56:49.954Z,8.4
2022-09-18T00:58:49.946Z,8.4
2022-09-18T01:00:51.164Z,8.4
2022-09-18T01:02:50.032Z,8.4
2022-09-18T01:04:50.358Z,8.4
2022-09-18T01:06:50.403Z,8.4
2022-09-18T01:08:50.217Z,8.4
2022-09-18T01:10:50.205Z,8.4
2022-09-18T01:12:49.999Z,8.4
2022-09-18T01:14:50.888Z,8.4
2022-09-18T01:16:50.210Z,8.4
2022-09-18T01:18:49.963Z,8.4
2022-09-18T01:20:49.883Z,8.4
2022-09-18T01:22:50.715Z,8.4
2022-09-18T01:24:50.922Z,8.4
2022-09-18T01:26:50.851Z,8.5
2022-09-18T01:28:50.710Z,8.5
2022-09-18T01:30:50.516Z,8.5
2022-09-18T01:32:50.306Z,8.5
2022-09-18T01:34:50.491Z,8.6
2022-09-18T01:36:50.708Z,8.6
2022-09-18T01:38:50.470Z,8.7
2022-09-18T01:40:50.435Z,8.7
2022-09-18T01:42:50.620Z,8.7
2022-09-18T01:44:50.506Z,8.7
2022-09-18T01:46:51.137Z,8.7
2022-09-18T01:48:50.191Z,8.8
2022-09-18T01:50:50.221Z,8.8
2022-09-18T01:52:50.119Z,8.9
2022-09-18T01:54:50.016Z,8.9
2022-09-18T01:56:50.249Z,8.9
2022-09-18T01:58:49.987Z,8.9
2022-09-18T02:00:50.836Z,8.9
2022-09-18T02:02:51.075Z,9.0
2022-09-18T02:04:50.412Z,9.0
2022-09-18T02:06:50.491Z,9.0
2022-09-18T02:08:50.590Z,9.0
2022-09-18T02:10:50.553Z,9.0
2022-09-18T02:12:50.476Z,9.0
2022-09-18T02:14:50.136Z,9.1
2022-09-18T02:16:50.345Z,9.1
2022-09-18T02:18:50.255Z,9.1
2022-09-18T02:20:50.168Z,9.1
2022-09-18T02:22:49.989Z,9.1
2022-09-18T02:24:50.264Z,9.1
2022-09-18T02:26:50.464Z,9.1
2022-09-18T02:28:50.311Z,9.1
2022-09-18T02:30:50.049Z,9.1
2022-09-18T02:32:50.118Z,9.2
2022-09-18T02:34:50.648Z,9.2
2022-09-18T02:36:50.711Z,9.2
2022-09-18T02:38:50.207Z,9.2
2022-09-18T02:40:50.021Z,9.2
2022-09-18T02:42:49.986Z,9.2
2022-09-18T02:44:50.863Z,9.2
2022-09-18T02:46:50.301Z,9.2
2022-09-18T02:48:50.112Z,9.2
2022-09-18T02:50:50.904Z,9.2
2022-09-18T02:52:50.816Z,9.2
2022-09-18T02:54:50.533Z,9.2
2022-09-18T02:56:49.929Z,9.2
2022-09-18T02:58:50.799Z,9.2
2022-09-18T03:00:50.758Z,9.2
2022-09-18T03:02:51.138Z,9.2
2022-09-18T03:04:50.514Z,9.2
2022-09-18T03:06:50.452Z,9.2
2022-09-18T03:08:50.446Z,9.2
2022-09-18T03:10:50.297Z,9.2
2022-09-18T03:12:50.036Z,9.2
2022-09-18T03:14:50.721Z,9.2
2022-09-18T03:16:50.708Z,9.2
2022-09-18T03:18:50.925Z,9.2
2022-09-18T03:20:50.915Z,9.2
2022-09-18T03:22:50.769Z,9.2
2022-09-18T03:24:50.740Z,9.2
2022-09-18T03:26:50.026Z,9.2
2022-09-18T03:28:50.840Z,9.2
2022-09-18T03:30:50.676Z,9.3
2022-09-18T03:32:50.509Z,9.3
2022-09-18T03:34:50.889Z,9.3
2022-09-18T03:36:50.172Z,9.3
2022-09-18T03:38:50.856Z,9.3
2022-09-18T03:40:50.251Z,9.3
2022-09-18T03:42:50.042Z,9.3
2022-09-18T03:44:50.660Z,9.3
2022-09-18T03:46:51.235Z,9.3
2022-09-18T03:48:50.322Z,9.3
2022-09-18T03:50:50.158Z,9.3
2022-09-18T03:52:52.104Z,9.3
2022-09-18T03:54:50.881Z,9.3
2022-09-18T03:56:50.872Z,9.3
2022-09-18T03:58:50.743Z,9.4
2022-09-18T04:00:50.451Z,9.4
2022-09-18T04:02:50.705Z,9.4
2022-09-18T04:04:50.144Z,9.4
2022-09-18T04:06:50.267Z,9.4
2022-09-18T04:08:49.998Z,9.4
2022-09-18T04:10:50.788Z,9.4
2022-09-18T04:12:50.617Z,9.4
2022-09-18T04:14:50.308Z,9.5
2022-09-18T04:16:50.388Z,9.5
2022-09-18T04:18:50.167Z,9.5
2022-09-18T04:20:49.944Z,9.5
2022-09-18T04:22:50.903Z,9.5
2022-09-18T04:24:50.963Z,9.5
2022-09-18T04:26:50.203Z,9.5
2022-09-18T04:28:50.067Z,9.5
2022-09-18T04:30:50.811Z,9.5
2022-09-18T04:32:50.726Z,9.5
2022-09-18T04:34:50.889Z,9.5
2022-09-18T04:36:49.982Z,9.5
2022-09-18T04:38:50.894Z,9.5
2022-09-18T04:40:50.616Z,9.5
2022-09-18T04:42:50.554Z,9.5
2022-09-18T04:44:50.223Z,9.5
2022-09-18T04:46:51.148Z,9.5
2022-09-18T04:48:50.107Z,9.4
2022-09-18T04:50:50.214Z,9.5
2022-09-18T04:52:50.191Z,9.4
2022-09-18T04:54:50.070Z,9.4
2022-09-18T04:56:50.121Z,9.5
2022-09-18T04:58:50.072Z,9.5
2022-09-18T05:00:51.263Z,9.5
2022-09-18T05:02:50.173Z,9.5
2022-09-18T05:04:50.452Z,9.5
2022-09-18T05:06:50.611Z,9.5
2022-09-18T05:08:50.832Z,9.5
2022-09-18T05:10:50.579Z,9.5
2022-09-18T05:12:50.296Z,9.5
2022-09-18T05:14:50.086Z,9.5
2022-09-18T05:16:50.217Z,9.5
2022-09-18T05:18:49.996Z,9.5
2022-09-18T05:20:49.955Z,9.5
2022-09-18T05:22:50.771Z,9.5
2022-09-18T05:24:50.450Z,9.5
2022-09-18T05:26:50.692Z,9.6
2022-09-18T05:28:50.360Z,9.6
2022-09-18T05:30:50.316Z,9.6
2022-09-18T05:32:50.227Z,9.6
2022-09-18T05:34:50.786Z,9.7
2022-09-18T05:36:50.020Z,9.7
2022-09-18T05:38:50.749Z,9.8
2022-09-18T05:40:50.493Z,9.8
2022-09-18T05:42:50.513Z,9.8
2022-09-18T05:44:50.373Z,9.9
2022-09-18T05:46:50.856Z,9.9
2022-09-18T05:48:51.092Z,9.9
2022-09-18T05:50:50.000Z,9.9
2022-09-18T05:52:50.034Z,9.9
2022-09-18T05:54:50.132Z,10.0
2022-09-18T05:56:50.417Z,10.0
2022-09-18T05:58:50.304Z,10.0
2022-09-18T06:00:50.418Z,10.0
2022-09-18T06:02:50.391Z,10.0
2022-09-18T06:04:50.753Z,10.0
2022-09-18T06:06:49.962Z,10.0
2022-09-18T06:08:49.994Z,10.0
2022-09-18T06:10:49.997Z,9.9
2022-09-18T06:12:50.876Z,9.9
2022-09-18T06:14:50.831Z,9.9
2022-09-18T06:16:50.947Z,10.0
2022-09-18T06:18:50.047Z,10.0
2022-09-18T06:20:49.915Z,9.9
2022-09-18T06:22:50.762Z,9.9
2022-09-18T06:24:50.558Z,9.9
2022-09-18T06:26:50.681Z,9.9
2022-09-18T06:28:50.601Z,10.0
2022-09-18T06:30:50.544Z,9.9
2022-09-18T06:32:50.388Z,9.9
2022-09-18T06:34:50.176Z,9.9
2022-09-18T06:36:50.512Z,9.9
2022-09-18T06:38:50.226Z,9.9
2022-09-18T06:40:50.188Z,10.0
2022-09-18T06:42:50.082Z,9.9
2022-09-18T06:44:49.917Z,10.0
2022-09-18T06:46:50.334Z,10.0
2022-09-18T06:48:50.184Z,10.0
2022-09-18T06:50:50.123Z,10.0
2022-09-18T06:52:49.974Z,10.0
2022-09-18T06:54:50.851Z,10.0
2022-09-18T06:56:50.078Z,10.0
2022-09-18T06:58:49.980Z,10.0
2022-09-18T07:00:51.115Z,10.0
2022-09-18T07:02:50.358Z,10.0
2022-09-18T07:04:50.068Z,10.0
2022-09-18T07:06:50.307Z,10.0
2022-09-18T07:08:50.045Z,10.0
2022-09-18T07:10:50.784Z,10.0
2022-09-18T07:12:50.653Z,10.0
2022-09-18T07:14:50.555Z,10.0
2022-09-18T07:16:50.699Z,10.0
2022-09-18T07:18:50.884Z,10.0
2022-09-18T07:20:50.113Z,10.0
2022-09-18T07:22:50.146Z,10.0
2022-09-18T07:24:50.165Z,10.0
2022-09-18T07:26:50.455Z,10.0
2022-09-18T07:28:50.467Z,10.0
2022-09-18T07:30:50.207Z,10.0
2022-09-18T07:32:50.168Z,10.0
2022-09-18T07:34:50.670Z,10.0
2022-09-18T07:36:50.863Z,10.0
2022-09-18T07:38:50.685Z,10.0
2022-09-18T07:40:50.450Z,10.0
2022-09-18T07:42:50.485Z,10.0
2022-09-18T07:44:50.420Z,10.0
2022-09-18T07:46:50.369Z,10.0
2022-09-18T07:48:50.468Z,10.1
2022-09-18T07:50:50.626Z,10.0
2022-09-18T07:52:50.451Z,10.0
2022-09-18T07:54:50.378Z,10.0
2022-09-18T07:56:50.693Z,10.1
2022-09-18T07:58:50.542Z,10.1
2022-09-18T08:00:50.310Z,10.1
2022-09-18T08:02:50.756Z,10.1
2022-09-18T08:04:50.490Z,10.1
2022-09-18T08:06:50.702Z,10.1
2022-09-18T08:08:55.632Z,10.1
2022-09-18T08:10:50.504Z,10.1
2022-09-18T08:12:50.462Z,10.1
2022-09-18T08:14:50.196Z,10.1
2022-09-18T08:16:50.436Z,10.1
2022-09-18T08:18:50.495Z,10.1
2022-09-18T08:20:50.504Z,10.1
2022-09-18T08:22:50.486Z,10.1
2022-09-18T08:24:50.402Z,10.0
2022-09-18T08:26:50.685Z,10.1
2022-09-18T08:28:50.823Z,10.1
2022-09-18T08:30:50.805Z,10.1
2022-09-18T08:32:50.903Z,10.2
2022-09-18T08:34:50.496Z,10.2
2022-09-18T08:36:50.292Z,10.2
2022-09-18T08:38:50.569Z,10.2
2022-09-18T08:40:50.540Z,10.2
2022-09-18T08:42:50.500Z,10.3
2022-09-18T08:44:50.648Z,10.3
2022-09-18T08:46:51.132Z,10.3
2022-09-18T08:48:50.463Z,10.3
2022-09-18T08:50:50.536Z,10.3
2022-09-18T08:52:50.399Z,10.3
2022-09-18T08:54:50.500Z,10.3
2022-09-18T08:56:50.808Z,10.4
2022-09-18T08:58:50.688Z,10.4
2022-09-18T09:00:51.049Z,10.4
2022-09-18T09:02:50.231Z,10.4
2022-09-18T09:04:50.483Z,10.4
2022-09-18T09:06:50.604Z,10.4
2022-09-18T09:08:50.566Z,10.5
2022-09-18T09:10:50.421Z,10.6
2022-09-18T09:12:50.174Z,10.6
2022-09-18T09:14:58.354Z,10.6
2022-09-18T09:16:50.514Z,10.6
2022-09-18T09:18:50.217Z,10.7
2022-09-18T09:20:50.048Z,10.8
2022-09-18T09:22:50.783Z,10.9
2022-09-18T09:24:50.672Z,10.9
2022-09-18T09:26:50.156Z,11.0
2022-09-18T09:28:50.841Z,11.1
2022-09-18T09:30:50.731Z,11.1
2022-09-18T09:32:50.654Z,11.1
2022-09-18T09:34:50.128Z,11.2
2022-09-18T09:36:50.504Z,11.2
2022-09-18T09:38:50.278Z,11.2
2022-09-18T09:40:50.107Z,11.3
2022-09-18T09:42:50.047Z,11.4
2022-09-18T09:44:49.997Z,11.4
2022-09-18T09:46:50.732Z,11.4
2022-09-18T09:48:50.922Z,11.5
2022-09-18T09:50:50.077Z,11.6
2022-09-18T09:52:50.199Z,11.6
2022-09-18T09:54:50.293Z,11.6
2022-09-18T09:56:50.730Z,11.6
2022-09-18T09:58:50.810Z,11.7
2022-09-18T10:00:50.974Z,11.7
2022-09-18T10:02:49.997Z,11.8
2022-09-18T10:04:49.968Z,11.8
2022-09-18T10:06:50.558Z,11.8
2022-09-18T10:08:50.691Z,11.8
2022-09-18T10:10:50.772Z,11.8
2022-09-18T10:12:50.736Z,11.8
2022-09-18T10:14:50.866Z,11.8
2022-09-18T10:16:50.862Z,11.9
2022-09-18T10:18:51.236Z,11.9
2022-09-18T10:20:50.282Z,11.9
2022-09-18T10:22:50.141Z,11.9
2022-09-18T10:24:50.220Z,11.9
2022-09-18T10:26:50.479Z,12.0
2022-09-18T10:28:50.600Z,12.0
2022-09-18T10:30:50.423Z,12.0
2022-09-18T10:32:50.346Z,12.0
2022-09-18T10:34:50.752Z,12.0
2022-09-18T10:36:50.181Z,12.1
2022-09-18T10:38:50.163Z,12.1
2022-09-18T10:40:50.221Z,12.2
2022-09-18T10:42:50.109Z,12.2
2022-09-18T10:44:49.976Z,12.3
2022-09-18T10:46:50.416Z,12.3
2022-09-18T10:48:50.761Z,12.4
2022-09-18T10:50:50.906Z,12.5
2022-09-18T10:52:50.849Z,12.5
2022-09-18T10:54:50.036Z,12.6
2022-09-18T10:56:50.279Z,12.6
2022-09-18T10:58:50.224Z,12.6
2022-09-18T11:00:50.716Z,12.6
2022-09-18T11:02:50.592Z,12.6
2022-09-18T11:04:50.109Z,12.6
2022-09-18T11:06:50.026Z,12.6
2022-09-18T11:08:50.863Z,12.6
2022-09-18T11:10:50.554Z,12.5
2022-09-18T11:12:56.207Z,12.5
2022-09-18T11:14:50.042Z,12.5
2022-09-18T11:16:50.147Z,12.5
2022-09-18T11:18:50.117Z,12.5
2022-09-18T11:20:50.122Z,12.4
2022-09-18T11:22:50.905Z,12.3
2022-09-18T11:24:50.726Z,12.3
2022-09-18T11:26:50.116Z,12.2
2022-09-18T11:28:50.052Z,12.2
2022-09-18T11:30:50.920Z,12.2
2022-09-18T11:32:50.688Z,12.1
2022-09-18T11:34:50.049Z,12.1
2022-09-18T11:36:50.214Z,12.0
2022-09-18T11:38:50.159Z,12.0
2022-09-18T11:40:50.111Z,12.0
2022-09-18T11:42:50.131Z,11.9
2022-09-18T11:44:49.977Z,11.9
2022-09-18T11:46:50.486Z,11.9
2022-09-18T11:48:50.403Z,11.9
2022-09-18T11:50:50.439Z,11.8
2022-09-18T11:52:50.496Z,11.8
2022-09-18T11:54:50.407Z,11.7
2022-09-18T11:56:50.099Z,11.7
2022-09-18T11:58:50.628Z,11.7
2022-09-18T12:00:50.642Z,11.6
2022-09-18T12:02:51.406Z,11.6
2022-09-18T12:04:50.172Z,11.6
2022-09-18T12:06:50.203Z,11.6
2022-09-18T12:08:48.851Z,11.6
2022-09-18T12:10:48.639Z,11.6
2022-09-18T12:12:48.763Z,11.6
2022-09-18T12:14:48.771Z,11.5
2022-09-18T12:16:49.070Z,11.5
2022-09-18T12:18:49.059Z,11.5
2022-09-18T12:20:48.979Z,11.6
2022-09-18T12:22:49.073Z,11.6
2022-09-18T12:24:49.108Z,11.6
2022-09-18T12:26:49.323Z,11.6
2022-09-18T12:28:49.198Z,11.7
2022-09-18T12:30:49.159Z,11.8
2022-09-18T12:32:49.065Z,11.9
2022-09-18T12:34:49.450Z,12.0
2022-09-18T12:36:48.732Z,12.0
2022-09-18T12:38:49.326Z,12.1
2022-09-18T12:40:49.265Z,12.2
2022-09-18T12:42:49.233Z,12.2
2022-09-18T12:44:50.102Z,12.3
2022-09-18T12:46:50.109Z,12.3
2022-09-18T12:48:49.473Z,12.4
2022-09-18T12:50:49.757Z,12.5
2022-09-18T12:53:10.406Z,12.5
2022-09-18T12:54:49.582Z,12.5
2022-09-18T12:56:49.849Z,12.5
2022-09-18T12:58:49.748Z,12.6
2022-09-18T13:00:49.857Z,12.6
2022-09-18T13:02:52.262Z,12.6
2022-09-18T13:04:49.575Z,12.6
2022-09-18T13:06:49.444Z,12.6
2022-09-18T13:08:49.426Z,12.7
2022-09-18T13:10:49.359Z,12.7
2022-09-18T13:12:49.273Z,12.8
2022-09-18T13:14:50.152Z,12.8
2022-09-18T13:16:51.193Z,12.8
2022-09-18T13:18:50.406Z,12.9
2022-09-18T13:20:50.127Z,12.9
2022-09-18T13:22:54.348Z,12.9
2022-09-18T13:24:50.234Z,12.9
2022-09-18T13:26:50.563Z,12.9
2022-09-18T13:28:50.620Z,12.9
2022-09-18T13:30:50.368Z,12.9
2022-09-18T13:32:50.204Z,12.9
2022-09-18T13:34:50.746Z,12.8
2022-09-18T13:36:50.049Z,12.8
2022-09-18T13:38:50.112Z,12.8
2022-09-18T13:40:50.169Z,12.8
2022-09-18T13:42:50.259Z,12.8
2022-09-18T13:44:50.177Z,12.8
2022-09-18T13:46:50.866Z,12.7
2022-09-18T13:48:50.227Z,12.7
2022-09-18T13:50:50.402Z,12.6
2022-09-18T13:52:50.304Z,12.6
2022-09-18T13:54:50.713Z,12.6
2022-09-18T13:56:50.804Z,12.5
2022-09-18T13:58:50.765Z,12.4
2022-09-18T14:00:50.196Z,12.4
2022-09-18T14:02:50.223Z,12.4
2022-09-18T14:04:49.905Z,12.3
2022-09-18T14:06:50.082Z,12.3
2022-09-18T14:08:50.095Z,12.3
2022-09-18T14:11:16.423Z,12.3
2022-09-18T14:12:50.507Z,12.3
2022-09-18T14:14:50.524Z,12.3
2022-09-18T14:16:50.682Z,12.3
2022-09-18T14:18:50.552Z,12.3
2022-09-18T14:20:50.489Z,12.4
2022-09-18T14:22:50.356Z,12.4
2022-09-18T14:24:50.363Z,12.4
2022-09-18T14:26:50.568Z,12.4
2022-09-18T14:28:50.374Z,12.4
2022-09-18T14:30:50.486Z,12.4
2022-09-18T14:32:50.305Z,12.3
2022-09-18T14:34:50.556Z,12.3
2022-09-18T14:36:50.721Z,12.3
2022-09-18T14:38:50.919Z,12.3
2022-09-18T14:40:50.074Z,12.3
2022-09-18T14:42:49.882Z,12.2
2022-09-18T14:44:50.698Z,12.2
2022-09-18T14:46:49.935Z,12.2
2022-09-18T14:48:50.726Z,12.2
2022-09-18T14:50:50.804Z,12.2
2022-09-18T14:52:50.527Z,12.1
2022-09-18T14:54:50.343Z,12.0
2022-09-18T14:56:50.624Z,12.0
2022-09-18T14:58:50.526Z,12.0
2022-09-18T15:00:50.664Z,11.9
2022-09-18T15:02:50.570Z,11.8
2022-09-18T15:04:50.421Z,11.8
2022-09-18T15:06:49.943Z,11.7
2022-09-18T15:08:50.738Z,11.6
2022-09-18T15:10:49.930Z,11.6
2022-09-18T15:12:50.710Z,11.5
2022-09-18T15:14:50.466Z,11.4
2022-09-18T15:16:50.483Z,11.4
2022-09-18T15:18:50.537Z,11.3
2022-09-18T15:20:50.314Z,11.2
2022-09-18T15:22:50.250Z,11.2
2022-09-18T15:24:50.491Z,11.2
2022-09-18T15:26:56.704Z,11.1
2022-09-18T15:28:50.913Z,11.0
2022-09-18T15:30:50.015Z,11.0
2022-09-18T15:32:50.167Z,11.0
2022-09-18T15:34:50.506Z,10.9
2022-09-18T15:36:50.819Z,10.9
2022-09-18T15:38:50.909Z,10.9
2022-09-18T15:40:50.007Z,10.8
2022-09-18T15:42:50.834Z,10.8
2022-09-18T15:44:50.802Z,10.8
2022-09-18T15:46:50.372Z,10.8
2022-09-18T15:48:50.550Z,10.7
2022-09-18T15:50:50.525Z,10.8
2022-09-18T15:52:50.524Z,10.7
2022-09-18T15:54:50.300Z,10.7
2022-09-18T15:56:50.879Z,10.7
2022-09-18T15:58:50.899Z,10.7
2022-09-18T16:00:50.924Z,10.6
2022-09-18T16:02:49.917Z,10.6
2022-09-18T16:04:50.542Z,10.6
2022-09-18T16:06:50.854Z,10.6
2022-09-18T16:08:50.755Z,10.6
2022-09-18T16:10:50.757Z,10.5
2022-09-18T16:12:50.546Z,10.5
2022-09-18T16:14:50.470Z,10.5
2022-09-18T16:16:50.722Z,10.5
2022-09-18T16:18:50.535Z,10.5
2022-09-18T16:20:50.472Z,10.4
2022-09-18T16:22:50.298Z,10.4
2022-09-18T16:24:50.042Z,10.4
2022-09-18T16:26:50.205Z,10.4
2022-09-18T16:28:50.104Z,10.4
2022-09-18T16:30:50.090Z,10.4
2022-09-18T16:32:50.880Z,10.4
2022-09-18T16:34:50.277Z,10.4
2022-09-18T16:36:50.552Z,10.4
2022-09-18T16:38:50.327Z,10.3
2022-09-18T16:40:50.369Z,10.3
2022-09-18T16:42:50.257Z,10.3
2022-09-18T16:44:49.946Z,10.3
2022-09-18T16:46:50.553Z,10.3
2022-09-18T16:48:50.649Z,10.3
2022-09-18T16:50:50.667Z,10.3
2022-09-18T16:52:50.538Z,10.3
2022-09-18T16:54:50.353Z,10.3
2022-09-18T16:56:50.508Z,10.3
2022-09-18T16:58:50.378Z,10.3
2022-09-18T17:00:50.539Z,10.3
2022-09-18T17:02:50.949Z,10.3
2022-09-18T17:04:50.402Z,10.3
2022-09-18T17:06:50.690Z,10.3
2022-09-18T17:08:50.842Z,10.3
2022-09-18T17:10:50.270Z,10.3
2022-09-18T17:12:50.442Z,10.3
2022-09-18T17:14:50.326Z,10.3
2022-09-18T17:16:50.680Z,10.3
2022-09-18T17:18:49.907Z,10.2
2022-09-18T17:20:50.884Z,10.2
2022-09-18T17:22:49.924Z,10.2
2022-09-18T17:24:50.783Z,10.2
2022-09-18T17:26:50.048Z,10.2
2022-09-18T17:28:50.169Z,10.2
2022-09-18T17:30:50.265Z,10.2
2022-09-18T17:32:50.220Z,10.2
2022-09-18T17:34:50.677Z,10.2
2022-09-18T17:36:50.875Z,10.2
2022-09-18T17:38:50.850Z,10.2
2022-09-18T17:40:50.673Z,10.2
2022-09-18T17:42:50.688Z,10.2
2022-09-18T17:44:50.525Z,10.2
2022-09-18T17:46:51.104Z,10.2
2022-09-18T17:48:50.182Z,10.2
2022-09-18T17:50:50.194Z,10.2
2022-09-18T17:52:50.033Z,10.2
2022-09-18T17:54:50.750Z,10.2
2022-09-18T17:56:50.010Z,10.2
2022-09-18T17:58:50.857Z,10.2
2022-09-18T18:00:51.171Z,10.2
2022-09-18T18:02:50.097Z,10.2
2022-09-18T18:04:50.534Z,10.2
2022-09-18T18:06:50.576Z,10.2
2022-09-18T18:08:50.492Z,10.2
2022-09-18T18:10:50.447Z,10.1
2022-09-18T18:12:50.168Z,10.1
2022-09-18T18:14:49.953Z,10.1
2022-09-18T18:16:53.106Z,10.1
2022-09-18T18:18:50.015Z,10.1
2022-09-18T18:20:50.883Z,10.1
2022-09-18T18:22:50.824Z,10.1
2022-09-18T18:24:50.601Z,10.1
2022-09-18T18:26:50.912Z,10.1
2022-09-18T18:28:50.801Z,10.1
2022-09-18T18:30:50.664Z,10.1
2022-09-18T18:32:50.520Z,10.0
2022-09-18T18:34:50.649Z,10.0
2022-09-18T18:36:50.855Z,10.0
2022-09-18T18:38:50.668Z,10.0
2022-09-18T18:40:50.648Z,10.0
2022-09-18T18:42:50.435Z,10.0
2022-09-18T18:44:50.471Z,10.0
2022-09-18T18:46:51.144Z,10.0
2022-09-18T18:48:50.077Z,10.0
2022-09-18T18:50:50.072Z,10.0
2022-09-18T18:52:50.858Z,10.0
2022-09-18T18:54:49.990Z,10.0
2022-09-18T18:56:50.377Z,9.9
2022-09-18T18:58:50.645Z,9.9
2022-09-18T19:00:51.063Z,9.9
2022-09-18T19:02:50.204Z,9.9
2022-09-18T19:04:50.559Z,9.9
2022-09-18T19:06:50.787Z,9.9
2022-09-18T19:08:50.678Z,9.8
2022-09-18T19:10:50.544Z,9.8
2022-09-18T19:12:50.492Z,9.8
2022-09-18T19:14:50.308Z,9.8
2022-09-18T19:16:50.622Z,9.8
2022-09-18T19:18:50.565Z,9.8
2022-09-18T19:20:50.413Z,9.7
2022-09-18T19:22:50.544Z,9.7
2022-09-18T19:24:50.352Z,9.7
2022-09-18T19:26:50.637Z,9.7
2022-09-18T19:28:50.562Z,9.6
2022-09-18T19:30:50.552Z,9.6
2022-09-18T19:32:50.535Z,9.6
2022-09-18T19:34:50.802Z,9.6
2022-09-18T19:36:50.389Z,9.6
2022-09-18T19:38:50.328Z,9.5
2022-09-18T19:40:50.358Z,9.5
2022-09-18T19:42:50.372Z,9.5
2022-09-18T19:44:50.401Z,9.5
2022-09-18T19:46:50.741Z,9.5
2022-09-18T19:48:50.739Z,9.5
2022-09-18T19:50:50.720Z,9.4
2022-09-18T19:52:51.916Z,9.4
2022-09-18T19:54:50.598Z,9.4
2022-09-18T19:56:50.774Z,9.4
2022-09-18T19:58:50.727Z,9.4
2022-09-18T20:00:51.031Z,9.4
2022-09-18T20:02:50.174Z,9.3
2022-09-18T20:04:50.516Z,9.3
2022-09-18T20:06:50.182Z,9.3
2022-09-18T20:08:50.024Z,9.2
2022-09-18T20:10:50.110Z,9.2
2022-09-18T20:12:50.183Z,9.0
2022-09-18T20:14:49.935Z,8.9
2022-09-18T20:16:50.254Z,8.8
2022-09-18T20:18:50.111Z,8.8
2022-09-18T20:20:49.993Z,8.7
2022-09-18T20:22:49.933Z,8.6
2022-09-18T20:24:50.102Z,8.5
2022-09-18T20:26:50.099Z,8.5
2022-09-18T20:28:50.899Z,8.4
2022-09-18T20:30:50.851Z,8.4
2022-09-18T20:32:50.698Z,8.4
2022-09-18T20:34:50.210Z,8.4
2022-09-18T20:36:50.436Z,8.3
2022-09-18T20:38:50.488Z,8.3
2022-09-18T20:40:50.620Z,8.3
2022-09-18T20:42:50.608Z,8.3
2022-09-18T20:44:50.624Z,8.3
2022-09-18T20:46:50.600Z,8.3
2022-09-18T20:48:50.709Z,8.2
2022-09-18T20:50:50.729Z,8.2
2022-09-18T20:52:50.568Z,8.2
2022-09-18T20:54:50.449Z,8.2
2022-09-18T20:56:50.716Z,8.2
2022-09-18T20:58:50.885Z,8.2
2022-09-18T21:00:50.987Z,8.1
2022-09-18T21:02:49.895Z,8.1
2022-09-18T21:04:50.347Z,8.1
2022-09-18T21:06:50.597Z,8.1
2022-09-18T21:08:50.371Z,8.1
2022-09-18T21:10:50.169Z,8.1
2022-09-18T21:12:50.062Z,8.1
2022-09-18T21:14:49.955Z,8.1
2022-09-18T21:16:50.350Z,8.1
2022-09-18T21:18:50.198Z,8.0
2022-09-18T21:20:50.109Z,8.0
2022-09-18T21:22:49.936Z,8.1
2022-09-18T21:24:50.831Z,8.1
2022-09-18T21:26:50.285Z,8.0
2022-09-18T21:28:50.385Z,8.0
2022-09-18T21:30:50.155Z,8.0
2022-09-18T21:32:56.136Z,8.0
2022-09-18T21:34:50.547Z,8.0
2022-09-18T21:36:50.536Z,8.0
2022-09-18T21:38:50.578Z,8.0
2022-09-18T21:40:50.519Z,8.0
2022-09-18T21:42:50.143Z,8.1
2022-09-18T21:44:49.926Z,8.1
2022-09-18T21:46:50.497Z,8.1
2022-09-18T21:48:50.357Z,8.1
2022-09-18T21:50:50.004Z,8.1
2022-09-18T21:52:49.901Z,8.1
2022-09-18T21:54:50.821Z,8.1
2022-09-18T21:56:50.719Z,8.1
2022-09-18T21:58:50.440Z,8.1
2022-09-18T22:00:50.724Z,8.1
2022-09-18T22:02:50.796Z,8.1
2022-09-18T22:04:50.318Z,8.1
2022-09-18T22:06:50.577Z,8.1
2022-09-18T22:08:50.410Z,8.1
2022-09-18T22:10:50.249Z,8.0
2022-09-18T22:12:50.051Z,8.0
2022-09-18T22:14:50.002Z,8.0
2022-09-18T22:16:50.144Z,8.0
2022-09-18T22:18:50.864Z,8.0
2022-09-18T22:20:50.980Z,8.0
2022-09-18T22:22:50.813Z,8.0
2022-09-18T22:24:50.790Z,8.0
2022-09-18T22:26:50.831Z,8.0
2022-09-18T22:28:50.972Z,8.0
2022-09-18T22:30:50.623Z,8.0
2022-09-18T22:32:50.412Z,8.0
2022-09-18T22:34:50.702Z,8.0
2022-09-18T22:36:50.776Z,8.0
2022-09-18T22:38:50.552Z,8.0
2022-09-18T22:40:50.287Z,8.0
2022-09-18T22:42:50.146Z,7.9
2022-09-18T22:44:50.083Z,7.9
2022-09-18T22:46:50.536Z,7.9
2022-09-18T22:48:50.579Z,7.9
2022-09-18T22:50:50.289Z,7.9
2022-09-18T22:52:50.195Z,7.9
2022-09-18T22:54:49.978Z,7.8
2022-09-18T22:56:50.173Z,7.8
2022-09-18T22:58:50.973Z,7.8
2022-09-18T23:00:50.895Z,7.8
2022-09-18T23:02:50.601Z,7.7
2022-09-18T23:04:51.115Z,7.6
2022-09-18T23:06:50.304Z,7.6
2022-09-18T23:08:50.031Z,7.6
2022-09-18T23:10:50.791Z,7.6
2022-09-18T23:12:50.484Z,7.5
2022-09-18T23:14:50.277Z,7.5
2022-09-18T23:16:50.278Z,7.4
2022-09-18T23:18:50.080Z,7.4
2022-09-18T23:20:50.144Z,7.3
2022-09-18T23:22:50.004Z,7.3
2022-09-18T23:24:50.865Z,7.3
2022-09-18T23:26:50.000Z,7.2
2022-09-18T23:28:50.879Z,7.2
2022-09-18T23:30:50.776Z,7.2
2022-09-18T23:32:50.664Z,7.2
2022-09-18T23:34:50.028Z,7.1
2022-09-18T23:36:50.287Z,7.1
2022-09-18T23:38:50.071Z,7.1
2022-09-18T23:40:49.970Z,7.1
2022-09-18T23:42:50.733Z,7.1
2022-09-18T23:44:50.507Z,7.1
2022-09-18T23:46:51.186Z,7.1
2022-09-18T23:48:50.216Z,7.0
2022-09-18T23:50:50.160Z,6.9
2022-09-18T23:52:49.900Z,6.9
2022-09-18T23:54:50.863Z,6.9
2022-09-18T23:56:50.117Z,6.9
2022-09-18T23:58:50.164Z,6.9
